EGSHEGLC

Guest
Details From EGSH - Norwich
To EGLC - London City
Flight Number -
Tags generated
Created
Modified
Stats Distance 84 nm / 155 km
Max Altitude 1,900 ft / 579 m
Waypoints 3
Social Downloads 0
Likes 0
Share VATSIM

Download

Looking for another format? Having issues loading an existing format? Contact us
Advertisement - Login to hide

Notes

Basic altitude profile: - Ascent Rate: 2500ft/min - Ascent Speed: 250kts - Cruise Altitude: 35000ft - Cruise Speed: 420kts - Descent Rate: 1500ft/min - Descent Speed: 250kts

Route

EGSH LAM EGLC

ID Type Via Altitude Latitude Longitude Leg Dist Tot Dist Heading (true) Name
O EGSH APT - 0 ft / 0 m 52.67686˚ 1.28449˚ - 0 nm - Norwich
LAM VOR - 1,900 ft / 579 m 51.64611˚ 0.15167˚ 74 nm 74 nm 214° / 214° LAMBOURNE VOR-DME
O EGLC APT - 0 ft / 0 m 51.50523˚ 0.05518˚ 9 nm 83 nm 203° / 203° London City

Altitude Profile

Advertisement - Login to hide

EGSH

Details ICAO EGSH (NWI)
Name Norwich
Region United Kingdom
Timezone Europe/London (UTC+0.0)
Stats Elevation 117 ft / 36 m (AMSL)
Location 52.676860° 1.284493°
Runways 2
Magnetic Variation 0.077° W

METAR

EGSH 132020Z 25011KT CAVOK 02/01 Q0987 NOSIG

Decode

TAF

Not found

Departure Runways

ID Width Length Bearing (true) Bearing (mag) Surface Threshold Offset Overrun Length
09 148 ft / 45 m 6,023 ft / 1,836 m 89.29° 89.37° Asphalt 0 ft / 0 m 0 ft / 0 m
21 141 ft / 43 m 5,148 ft / 1,569 m 216.41° 216.49° Asphalt 0 ft / 0 m 0 ft / 0 m
27 148 ft / 45 m 6,023 ft / 1,836 m 269.31° 269.39° Asphalt 0 ft / 0 m 0 ft / 0 m
3 141 ft / 43 m 5,148 ft / 1,569 m 36.39° 36.47° Asphalt 991 ft / 302 m 0 ft / 0 m

EGLC

Details ICAO EGLC (LCY)
Name London City
Region United Kingdom
Timezone Europe/London (UTC+0.0)
Stats Elevation 19 ft / 6 m (AMSL)
Location 51.505231° 0.055175°
Runways 1
Magnetic Variation 0.385° W

METAR

EGLC 132020Z AUTO 24012KT 200V280 9999 NCD 06/02 Q0990

Decode

TAF

Not found

Destination Runways

ID Width Length Bearing (true) Bearing (mag) Surface Threshold Offset Overrun Length
09 98 ft / 30 m 4,931 ft / 1,503 m 92.89° 93.27° Concrete 322 ft / 98 m 164 ft / 50 m
27 98 ft / 30 m 4,931 ft / 1,503 m 272.91° 273.29° Concrete 243 ft / 74 m 279 ft / 85 m

Approach Navaids

Runway Type Ident Frequency Range Bearing (true) Bearing (mag) Slope Elevation
09 Localiser ILST 111.15 MHz 18 nm / 33 km 92.91° 93.29° - 19 ft / 6 m (AMSL)
09 Glidescope ILST 111.15 MHz 10 nm / 19 km 92.90° 93.29° 5.05° 35 ft / 11 m (AMSL)
09 DME ILST 111.15 MHz 18 nm / 33 km - - - 48 ft / 15 m (AMSL)
27 Localiser ILSR 111.15 MHz 18 nm / 33 km 272.89° 273.28° - 19 ft / 6 m (AMSL)
27 Glidescope ILSR 111.15 MHz 10 nm / 19 km 272.90° 273.29° 5.50° 35 ft / 11 m (AMSL)
27 DME ILSR 111.15 MHz 18 nm / 33 km - - - 48 ft / 15 m (AMSL)

Popular Alternatives